sensor_id;sensor_type;location;lat;lon;timestamp;temperature;humidity
61807;DHT22;47726;52.766;6.606;2022-10-20T00:01:10;10.10;99.90
61807;DHT22;47726;52.766;6.606;2022-10-20T00:03:37;10.10;99.90
61807;DHT22;47726;52.766;6.606;2022-10-20T00:06:14;10.10;99.90
61807;DHT22;47726;52.766;6.606;2022-10-20T00:08:41;10.00;99.90
61807;DHT22;47726;52.766;6.606;2022-10-20T00:11:08;10.00;99.90
61807;DHT22;47726;52.766;6.606;2022-10-20T00:13:34;10.00;99.90
61807;DHT22;47726;52.766;6.606;2022-10-20T00:16:00;10.00;99.90
61807;DHT22;47726;52.766;6.606;2022-10-20T00:18:26;10.00;99.90
61807;DHT22;47726;52.766;6.606;2022-10-20T00:20:52;10.00;99.90
61807;DHT22;47726;52.766;6.606;2022-10-20T00:23:18;10.00;99.90
61807;DHT22;47726;52.766;6.606;2022-10-20T00:25:44;9.90;99.90
61807;DHT22;47726;52.766;6.606;2022-10-20T00:28:10;10.00;99.90
61807;DHT22;47726;52.766;6.606;2022-10-20T00:30:36;9.90;99.90
61807;DHT22;47726;52.766;6.606;2022-10-20T00:33:03;9.90;99.90
61807;DHT22;47726;52.766;6.606;2022-10-20T00:35:29;9.90;99.90
61807;DHT22;47726;52.766;6.606;2022-10-20T00:37:55;9.90;99.90
61807;DHT22;47726;52.766;6.606;2022-10-20T00:40:21;9.90;99.90
61807;DHT22;47726;52.766;6.606;2022-10-20T00:42:47;9.90;99.90
61807;DHT22;47726;52.766;6.606;2022-10-20T00:45:18;9.90;99.90
61807;DHT22;47726;52.766;6.606;2022-10-20T00:47:53;9.80;99.90
61807;DHT22;47726;52.766;6.606;2022-10-20T00:50:23;9.80;99.90
61807;DHT22;47726;52.766;6.606;2022-10-20T00:52:50;9.80;99.90
61807;DHT22;47726;52.766;6.606;2022-10-20T00:55:28;9.80;99.90
61807;DHT22;47726;52.766;6.606;2022-10-20T00:57:56;9.80;99.90
61807;DHT22;47726;52.766;6.606;2022-10-20T01:00:23;9.80;99.90
61807;DHT22;47726;52.766;6.606;2022-10-20T01:02:50;9.70;99.90
61807;DHT22;47726;52.766;6.606;2022-10-20T01:05:17;9.70;99.90
61807;DHT22;47726;52.766;6.606;2022-10-20T01:07:43;9.70;99.90
61807;DHT22;47726;52.766;6.606;2022-10-20T01:10:09;9.70;99.90
61807;DHT22;47726;52.766;6.606;2022-10-20T01:12:50;9.70;99.90
61807;DHT22;47726;52.766;6.606;2022-10-20T01:15:20;9.70;99.90
61807;DHT22;47726;52.766;6.606;2022-10-20T01:18:17;9.70;99.90
61807;DHT22;47726;52.766;6.606;2022-10-20T01:35:13;9.60;99.90
61807;DHT22;47726;52.766;6.606;2022-10-20T01:37:53;9.60;99.90
61807;DHT22;47726;52.766;6.606;2022-10-20T01:40:29;9.60;99.90
61807;DHT22;47726;52.766;6.606;2022-10-20T01:42:58;9.60;99.90
61807;DHT22;47726;52.766;6.606;2022-10-20T01:45:27;9.50;99.90
61807;DHT22;47726;52.766;6.606;2022-10-20T01:47:54;9.60;99.90
61807;DHT22;47726;52.766;6.606;2022-10-20T01:50:21;9.50;99.90
61807;DHT22;47726;52.766;6.606;2022-10-20T01:52:48;9.50;99.90
61807;DHT22;47726;52.766;6.606;2022-10-20T01:55:16;9.50;99.90
61807;DHT22;47726;52.766;6.606;2022-10-20T02:00:12;9.50;99.90
61807;DHT22;47726;52.766;6.606;2022-10-20T02:08:27;9.50;99.90
61807;DHT22;47726;52.766;6.606;2022-10-20T02:11:00;9.40;99.90
61807;DHT22;47726;52.766;6.606;2022-10-20T02:13:28;9.50;99.90
61807;DHT22;47726;52.766;6.606;2022-10-20T02:15:57;9.40;99.90
61807;DHT22;47726;52.766;6.606;2022-10-20T02:18:29;9.40;99.90
61807;DHT22;47726;52.766;6.606;2022-10-20T02:20:57;9.40;99.90
61807;DHT22;47726;52.766;6.606;2022-10-20T02:23:24;9.40;99.90
61807;DHT22;47726;52.766;6.606;2022-10-20T02:25:51;9.40;99.90
61807;DHT22;47726;52.766;6.606;2022-10-20T02:28:19;9.40;99.90
61807;DHT22;47726;52.766;6.606;2022-10-20T02:30:46;9.40;99.90
61807;DHT22;47726;52.766;6.606;2022-10-20T02:33:13;9.30;99.90
61807;DHT22;47726;52.766;6.606;2022-10-20T02:35:42;9.30;99.90
61807;DHT22;47726;52.766;6.606;2022-10-20T02:38:12;9.30;99.90
61807;DHT22;47726;52.766;6.606;2022-10-20T02:40:38;9.30;99.90
61807;DHT22;47726;52.766;6.606;2022-10-20T02:43:03;9.30;99.90
61807;DHT22;47726;52.766;6.606;2022-10-20T02:45:29;9.30;99.90
61807;DHT22;47726;52.766;6.606;2022-10-20T02:47:55;9.30;99.90
61807;DHT22;47726;52.766;6.606;2022-10-20T02:50:20;9.30;99.90
61807;DHT22;47726;52.766;6.606;2022-10-20T02:52:46;9.30;99.90
61807;DHT22;47726;52.766;6.606;2022-10-20T02:55:11;9.30;99.90
61807;DHT22;47726;52.766;6.606;2022-10-20T02:57:37;9.20;99.90
61807;DHT22;47726;52.766;6.606;2022-10-20T03:00:04;9.20;99.90
61807;DHT22;47726;52.766;6.606;2022-10-20T03:02:30;9.30;99.90
61807;DHT22;47726;52.766;6.606;2022-10-20T03:04:56;9.20;99.90
61807;DHT22;47726;52.766;6.606;2022-10-20T03:07:21;9.20;99.90
61807;DHT22;47726;52.766;6.606;2022-10-20T03:09:47;9.20;99.90
61807;DHT22;47726;52.766;6.606;2022-10-20T03:12:13;9.20;99.90
61807;DHT22;47726;52.766;6.606;2022-10-20T03:14:38;9.20;99.90
61807;DHT22;47726;52.766;6.606;2022-10-20T03:17:06;9.20;99.90
61807;DHT22;47726;52.766;6.606;2022-10-20T03:19:32;9.20;99.90
61807;DHT22;47726;52.766;6.606;2022-10-20T03:21:57;9.20;99.90
61807;DHT22;47726;52.766;6.606;2022-10-20T03:24:23;9.20;99.90
61807;DHT22;47726;52.766;6.606;2022-10-20T03:26:48;9.10;99.90
61807;DHT22;47726;52.766;6.606;2022-10-20T03:29:14;9.10;99.90
61807;DHT22;47726;52.766;6.606;2022-10-20T03:31:39;9.10;99.90
61807;DHT22;47726;52.766;6.606;2022-10-20T03:34:05;9.10;99.90
61807;DHT22;47726;52.766;6.606;2022-10-20T03:36:30;9.10;99.90
61807;DHT22;47726;52.766;6.606;2022-10-20T03:38:56;9.10;99.90
61807;DHT22;47726;52.766;6.606;2022-10-20T03:41:21;9.10;99.90
61807;DHT22;47726;52.766;6.606;2022-10-20T03:43:47;9.10;99.90
61807;DHT22;47726;52.766;6.606;2022-10-20T03:46:12;9.10;99.90
61807;DHT22;47726;52.766;6.606;2022-10-20T03:48:39;9.10;99.90
61807;DHT22;47726;52.766;6.606;2022-10-20T03:51:05;9.10;99.90
61807;DHT22;47726;52.766;6.606;2022-10-20T03:53:31;9.10;99.90
61807;DHT22;47726;52.766;6.606;2022-10-20T03:55:57;9.10;99.90
61807;DHT22;47726;52.766;6.606;2022-10-20T03:58:23;9.00;99.90
61807;DHT22;47726;52.766;6.606;2022-10-20T04:00:49;9.00;99.90
61807;DHT22;47726;52.766;6.606;2022-10-20T04:03:14;9.00;99.90
61807;DHT22;47726;52.766;6.606;2022-10-20T04:05:40;9.00;99.90
61807;DHT22;47726;52.766;6.606;2022-10-20T04:08:06;9.00;99.90
61807;DHT22;47726;52.766;6.606;2022-10-20T04:10:31;9.00;99.90
61807;DHT22;47726;52.766;6.606;2022-10-20T04:12:58;9.00;99.90
61807;DHT22;47726;52.766;6.606;2022-10-20T04:15:24;9.00;99.90
61807;DHT22;47726;52.766;6.606;2022-10-20T04:17:49;9.00;99.90
61807;DHT22;47726;52.766;6.606;2022-10-20T04:20:15;9.00;99.90
61807;DHT22;47726;52.766;6.606;2022-10-20T04:22:40;9.00;99.90
61807;DHT22;47726;52.766;6.606;2022-10-20T04:25:07;9.00;99.90
61807;DHT22;47726;52.766;6.606;2022-10-20T04:27:33;9.00;99.90
61807;DHT22;47726;52.766;6.606;2022-10-20T04:29:58;9.00;99.90
61807;DHT22;47726;52.766;6.606;2022-10-20T04:32:24;9.00;99.90
61807;DHT22;47726;52.766;6.606;2022-10-20T04:34:49;9.00;99.90
61807;DHT22;47726;52.766;6.606;2022-10-20T04:37:15;9.00;99.90
61807;DHT22;47726;52.766;6.606;2022-10-20T04:39:40;9.00;99.90
61807;DHT22;47726;52.766;6.606;2022-10-20T04:42:06;9.00;99.90
61807;DHT22;47726;52.766;6.606;2022-10-20T04:44:31;8.90;99.90
61807;DHT22;47726;52.766;6.606;2022-10-20T04:46:57;8.90;99.90
61807;DHT22;47726;52.766;6.606;2022-10-20T04:49:23;8.90;99.90
61807;DHT22;47726;52.766;6.606;2022-10-20T04:51:48;8.90;99.90
61807;DHT22;47726;52.766;6.606;2022-10-20T04:54:14;8.90;99.90
61807;DHT22;47726;52.766;6.606;2022-10-20T04:56:39;8.90;99.90
61807;DHT22;47726;52.766;6.606;2022-10-20T04:59:05;8.90;99.90
61807;DHT22;47726;52.766;6.606;2022-10-20T05:01:31;8.90;99.90
61807;DHT22;47726;52.766;6.606;2022-10-20T05:03:57;8.90;99.90
61807;DHT22;47726;52.766;6.606;2022-10-20T05:06:27;8.90;99.90
61807;DHT22;47726;52.766;6.606;2022-10-20T05:08:55;8.90;99.90
61807;DHT22;47726;52.766;6.606;2022-10-20T05:11:23;8.90;99.90
61807;DHT22;47726;52.766;6.606;2022-10-20T05:13:49;8.90;99.90
61807;DHT22;47726;52.766;6.606;2022-10-20T05:16:15;8.90;99.90
61807;DHT22;47726;52.766;6.606;2022-10-20T05:18:42;8.90;99.90
61807;DHT22;47726;52.766;6.606;2022-10-20T05:21:10;8.90;99.90
61807;DHT22;47726;52.766;6.606;2022-10-20T05:23:38;8.90;99.90
61807;DHT22;47726;52.766;6.606;2022-10-20T05:26:06;8.90;99.90
61807;DHT22;47726;52.766;6.606;2022-10-20T05:28:32;8.90;99.90
61807;DHT22;47726;52.766;6.606;2022-10-20T05:31:05;8.90;99.90
61807;DHT22;47726;52.766;6.606;2022-10-20T05:33:31;8.90;99.90
61807;DHT22;47726;52.766;6.606;2022-10-20T05:35:57;8.80;99.90
61807;DHT22;47726;52.766;6.606;2022-10-20T05:38:23;8.80;99.90
61807;DHT22;47726;52.766;6.606;2022-10-20T05:40:48;8.80;99.90
61807;DHT22;47726;52.766;6.606;2022-10-20T05:43:14;8.80;99.90
61807;DHT22;47726;52.766;6.606;2022-10-20T05:45:40;8.80;99.90
61807;DHT22;47726;52.766;6.606;2022-10-20T05:48:05;8.80;99.90
61807;DHT22;47726;52.766;6.606;2022-10-20T05:50:31;8.80;99.90
61807;DHT22;47726;52.766;6.606;2022-10-20T05:52:57;8.80;99.90
61807;DHT22;47726;52.766;6.606;2022-10-20T05:55:23;8.80;99.90
61807;DHT22;47726;52.766;6.606;2022-10-20T05:57:49;8.80;99.90
61807;DHT22;47726;52.766;6.606;2022-10-20T06:00:15;8.80;99.90
61807;DHT22;47726;52.766;6.606;2022-10-20T06:02:43;8.80;99.90
61807;DHT22;47726;52.766;6.606;2022-10-20T06:05:08;8.80;99.90
61807;DHT22;47726;52.766;6.606;2022-10-20T06:07:34;8.80;99.90
61807;DHT22;47726;52.766;6.606;2022-10-20T06:10:00;8.80;99.90
61807;DHT22;47726;52.766;6.606;2022-10-20T06:12:25;8.80;99.90
61807;DHT22;47726;52.766;6.606;2022-10-20T06:14:51;8.80;99.90
61807;DHT22;47726;52.766;6.606;2022-10-20T06:17:16;8.80;99.90
61807;DHT22;47726;52.766;6.606;2022-10-20T06:19:42;8.80;99.90
61807;DHT22;47726;52.766;6.606;2022-10-20T06:22:07;8.80;99.90
61807;DHT22;47726;52.766;6.606;2022-10-20T06:24:33;8.80;99.90
61807;DHT22;47726;52.766;6.606;2022-10-20T06:26:59;8.80;99.90
61807;DHT22;47726;52.766;6.606;2022-10-20T06:29:24;8.80;99.90
61807;DHT22;47726;52.766;6.606;2022-10-20T06:31:50;8.80;99.90
61807;DHT22;47726;52.766;6.606;2022-10-20T06:34:20;8.80;99.90
61807;DHT22;47726;52.766;6.606;2022-10-20T06:36:46;8.80;99.90
61807;DHT22;47726;52.766;6.606;2022-10-20T06:39:18;8.80;99.90
61807;DHT22;47726;52.766;6.606;2022-10-20T06:41:48;8.80;99.90
61807;DHT22;47726;52.766;6.606;2022-10-20T06:44:19;8.80;99.90
61807;DHT22;47726;52.766;6.606;2022-10-20T06:46:45;8.80;99.90
61807;DHT22;47726;52.766;6.606;2022-10-20T06:49:12;8.80;99.90
61807;DHT22;47726;52.766;6.606;2022-10-20T06:51:38;8.80;99.90
61807;DHT22;47726;52.766;6.606;2022-10-20T06:54:04;8.80;99.90
61807;DHT22;47726;52.766;6.606;2022-10-20T06:56:32;8.80;99.90
61807;DHT22;47726;52.766;6.606;2022-10-20T06:58:59;8.80;99.90
61807;DHT22;47726;52.766;6.606;2022-10-20T07:01:29;8.80;99.90
61807;DHT22;47726;52.766;6.606;2022-10-20T07:04:01;8.80;99.90
61807;DHT22;47726;52.766;6.606;2022-10-20T07:06:29;8.80;99.90
61807;DHT22;47726;52.766;6.606;2022-10-20T07:08:56;8.80;99.90
61807;DHT22;47726;52.766;6.606;2022-10-20T07:11:30;8.80;99.90
61807;DHT22;47726;52.766;6.606;2022-10-20T07:14:00;8.90;99.90
61807;DHT22;47726;52.766;6.606;2022-10-20T07:16:27;8.90;99.90
61807;DHT22;47726;52.766;6.606;2022-10-20T07:18:53;8.90;99.90
61807;DHT22;47726;52.766;6.606;2022-10-20T07:21:22;8.90;99.90
61807;DHT22;47726;52.766;6.606;2022-10-20T07:23:49;8.90;99.90
61807;DHT22;47726;52.766;6.606;2022-10-20T07:26:18;8.90;99.90
61807;DHT22;47726;52.766;6.606;2022-10-20T07:28:46;8.90;99.90
61807;DHT22;47726;52.766;6.606;2022-10-20T07:31:18;8.90;99.90
61807;DHT22;47726;52.766;6.606;2022-10-20T07:33:44;8.90;99.90
61807;DHT22;47726;52.766;6.606;2022-10-20T07:36:15;8.90;99.90
61807;DHT22;47726;52.766;6.606;2022-10-20T07:38:42;8.90;99.90
61807;DHT22;47726;52.766;6.606;2022-10-20T07:41:08;9.00;99.90
61807;DHT22;47726;52.766;6.606;2022-10-20T07:43:35;9.00;99.90
61807;DHT22;47726;52.766;6.606;2022-10-20T07:46:01;9.10;99.90
61807;DHT22;47726;52.766;6.606;2022-10-20T07:48:26;9.10;99.90
61807;DHT22;47726;52.766;6.606;2022-10-20T07:50:52;9.10;99.90
61807;DHT22;47726;52.766;6.606;2022-10-20T07:53:17;9.10;99.90
61807;DHT22;47726;52.766;6.606;2022-10-20T07:55:43;9.20;99.90
61807;DHT22;47726;52.766;6.606;2022-10-20T07:58:10;9.20;99.90
61807;DHT22;47726;52.766;6.606;2022-10-20T08:00:36;9.30;99.90
61807;DHT22;47726;52.766;6.606;2022-10-20T08:03:02;9.40;99.90
61807;DHT22;47726;52.766;6.606;2022-10-20T08:05:27;9.40;99.90
61807;DHT22;47726;52.766;6.606;2022-10-20T08:07:54;9.50;99.90
61807;DHT22;47726;52.766;6.606;2022-10-20T08:10:19;9.50;99.90
61807;DHT22;47726;52.766;6.606;2022-10-20T08:12:45;9.60;99.90
61807;DHT22;47726;52.766;6.606;2022-10-20T08:15:10;9.60;99.90
61807;DHT22;47726;52.766;6.606;2022-10-20T08:17:36;9.60;99.90
61807;DHT22;47726;52.766;6.606;2022-10-20T08:20:02;9.60;99.90
61807;DHT22;47726;52.766;6.606;2022-10-20T08:22:28;9.70;99.90
61807;DHT22;47726;52.766;6.606;2022-10-20T08:24:54;9.80;99.90
61807;DHT22;47726;52.766;6.606;2022-10-20T08:27:20;10.00;99.90
61807;DHT22;47726;52.766;6.606;2022-10-20T08:29:45;10.10;99.90
61807;DHT22;47726;52.766;6.606;2022-10-20T08:32:11;10.20;99.90
61807;DHT22;47726;52.766;6.606;2022-10-20T08:34:38;10.30;99.90
61807;DHT22;47726;52.766;6.606;2022-10-20T08:37:04;10.40;99.90
61807;DHT22;47726;52.766;6.606;2022-10-20T08:39:30;10.60;99.90
61807;DHT22;47726;52.766;6.606;2022-10-20T08:41:56;10.70;99.90
61807;DHT22;47726;52.766;6.606;2022-10-20T08:44:33;10.80;99.90
61807;DHT22;47726;52.766;6.606;2022-10-20T08:47:01;10.90;99.90
61807;DHT22;47726;52.766;6.606;2022-10-20T08:49:30;11.10;99.90
61807;DHT22;47726;52.766;6.606;2022-10-20T08:51:57;11.30;99.90
61807;DHT22;47726;52.766;6.606;2022-10-20T08:54:23;11.50;99.90
61807;DHT22;47726;52.766;6.606;2022-10-20T08:56:49;11.70;99.90
61807;DHT22;47726;52.766;6.606;2022-10-20T08:59:34;11.90;99.90
61807;DHT22;47726;52.766;6.606;2022-10-20T09:02:02;11.90;99.90
61807;DHT22;47726;52.766;6.606;2022-10-20T09:04:41;11.90;99.90
61807;DHT22;47726;52.766;6.606;2022-10-20T09:07:41;11.90;99.90
61807;DHT22;47726;52.766;6.606;2022-10-20T09:10:08;11.90;99.90
61807;DHT22;47726;52.766;6.606;2022-10-20T09:12:39;11.90;99.90
61807;DHT22;47726;52.766;6.606;2022-10-20T09:15:09;11.90;99.90
61807;DHT22;47726;52.766;6.606;2022-10-20T09:17:35;11.90;99.90
61807;DHT22;47726;52.766;6.606;2022-10-20T09:20:01;11.80;99.90
61807;DHT22;47726;52.766;6.606;2022-10-20T09:22:29;11.90;99.90
61807;DHT22;47726;52.766;6.606;2022-10-20T09:24:56;11.80;99.90
61807;DHT22;47726;52.766;6.606;2022-10-20T09:27:29;11.80;99.90
61807;DHT22;47726;52.766;6.606;2022-10-20T09:29:55;11.80;99.90
61807;DHT22;47726;52.766;6.606;2022-10-20T09:32:33;11.70;99.90
61807;DHT22;47726;52.766;6.606;2022-10-20T09:37:40;11.70;99.90
61807;DHT22;47726;52.766;6.606;2022-10-20T09:40:13;11.70;99.90
61807;DHT22;47726;52.766;6.606;2022-10-20T09:42:50;11.70;99.90
61807;DHT22;47726;52.766;6.606;2022-10-20T09:47:49;11.70;99.90
61807;DHT22;47726;52.766;6.606;2022-10-20T09:50:25;11.70;99.90
61807;DHT22;47726;52.766;6.606;2022-10-20T09:52:51;11.80;99.90
61807;DHT22;47726;52.766;6.606;2022-10-20T09:55:32;11.80;99.90
61807;DHT22;47726;52.766;6.606;2022-10-20T09:58:00;11.80;99.90
61807;DHT22;47726;52.766;6.606;2022-10-20T10:00:31;11.80;99.90
61807;DHT22;47726;52.766;6.606;2022-10-20T10:03:19;11.90;99.90
61807;DHT22;47726;52.766;6.606;2022-10-20T10:05:59;12.00;99.90
61807;DHT22;47726;52.766;6.606;2022-10-20T10:08:28;12.00;99.90
61807;DHT22;47726;52.766;6.606;2022-10-20T10:11:14;12.10;99.90
61807;DHT22;47726;52.766;6.606;2022-10-20T10:13:42;12.10;99.90
61807;DHT22;47726;52.766;6.606;2022-10-20T10:16:13;12.20;99.90
61807;DHT22;47726;52.766;6.606;2022-10-20T10:18:41;12.20;99.90
61807;DHT22;47726;52.766;6.606;2022-10-20T10:21:09;12.30;99.90
61807;DHT22;47726;52.766;6.606;2022-10-20T10:23:55;12.30;99.90
61807;DHT22;47726;52.766;6.606;2022-10-20T10:26:45;12.40;99.90
61807;DHT22;47726;52.766;6.606;2022-10-20T10:29:30;12.40;99.90
61807;DHT22;47726;52.766;6.606;2022-10-20T10:31:59;12.60;99.90
61807;DHT22;47726;52.766;6.606;2022-10-20T10:37:18;12.90;99.90
61807;DHT22;47726;52.766;6.606;2022-10-20T10:39:44;13.00;99.90
61807;DHT22;47726;52.766;6.606;2022-10-20T10:42:53;13.10;99.90
61807;DHT22;47726;52.766;6.606;2022-10-20T10:45:51;13.20;99.90
61807;DHT22;47726;52.766;6.606;2022-10-20T10:51:31;13.40;99.90
61807;DHT22;47726;52.766;6.606;2022-10-20T10:56:45;13.60;99.90
61807;DHT22;47726;52.766;6.606;2022-10-20T10:59:27;13.70;99.90
61807;DHT22;47726;52.766;6.606;2022-10-20T11:04:58;13.90;99.90
61807;DHT22;47726;52.766;6.606;2022-10-20T11:10:06;14.00;99.90
61807;DHT22;47726;52.766;6.606;2022-10-20T11:26:25;13.90;99.90
61807;DHT22;47726;52.766;6.606;2022-10-20T11:28:54;13.90;99.90
61807;DHT22;47726;52.766;6.606;2022-10-20T11:33:59;13.90;99.90
61807;DHT22;47726;52.766;6.606;2022-10-20T11:36:31;13.90;99.90
61807;DHT22;47726;52.766;6.606;2022-10-20T11:38:59;13.80;99.90
61807;DHT22;47726;52.766;6.606;2022-10-20T11:41:39;13.80;99.90
61807;DHT22;47726;52.766;6.606;2022-10-20T11:44:33;13.80;99.90
61807;DHT22;47726;52.766;6.606;2022-10-20T11:47:04;13.80;99.90
61807;DHT22;47726;52.766;6.606;2022-10-20T11:49:31;13.80;99.90
61807;DHT22;47726;52.766;6.606;2022-10-20T11:52:09;13.80;99.90
61807;DHT22;47726;52.766;6.606;2022-10-20T12:09:04;13.70;99.90
61807;DHT22;47726;52.766;6.606;2022-10-20T12:11:40;13.70;99.90
61807;DHT22;47726;52.766;6.606;2022-10-20T12:14:22;13.70;99.90
61807;DHT22;47726;52.766;6.606;2022-10-20T12:19:27;13.60;99.90
61807;DHT22;47726;52.766;6.606;2022-10-20T12:21:55;13.60;99.90
61807;DHT22;47726;52.766;6.606;2022-10-20T12:24:37;13.60;99.90
61807;DHT22;47726;52.766;6.606;2022-10-20T12:34:59;13.50;99.90
61807;DHT22;47726;52.766;6.606;2022-10-20T12:37:30;13.40;99.90
61807;DHT22;47726;52.766;6.606;2022-10-20T12:40:30;13.50;99.90
61807;DHT22;47726;52.766;6.606;2022-10-20T12:42:56;13.40;99.90
61807;DHT22;47726;52.766;6.606;2022-10-20T12:45:41;13.40;99.90
61807;DHT22;47726;52.766;6.606;2022-10-20T12:48:08;13.40;99.90
61807;DHT22;47726;52.766;6.606;2022-10-20T12:50:43;13.30;99.90
61807;DHT22;47726;52.766;6.606;2022-10-20T12:53:25;13.30;99.90
61807;DHT22;47726;52.766;6.606;2022-10-20T12:56:09;13.30;99.90
61807;DHT22;47726;52.766;6.606;2022-10-20T13:12:54;13.20;99.90
61807;DHT22;47726;52.766;6.606;2022-10-20T13:15:52;13.20;99.90
61807;DHT22;47726;52.766;6.606;2022-10-20T13:18:27;13.20;99.90
61807;DHT22;47726;52.766;6.606;2022-10-20T13:23:53;13.20;99.90
61807;DHT22;47726;52.766;6.606;2022-10-20T13:26:28;13.20;99.90
61807;DHT22;47726;52.766;6.606;2022-10-20T13:28:59;13.20;99.90
61807;DHT22;47726;52.766;6.606;2022-10-20T13:34:27;13.20;99.90
61807;DHT22;47726;52.766;6.606;2022-10-20T13:37:28;13.20;99.90
61807;DHT22;47726;52.766;6.606;2022-10-20T13:40:25;13.10;99.90
61807;DHT22;47726;52.766;6.606;2022-10-20T13:43:15;13.10;99.90
61807;DHT22;47726;52.766;6.606;2022-10-20T13:51:25;13.10;99.90
61807;DHT22;47726;52.766;6.606;2022-10-20T13:53:59;13.10;99.90
61807;DHT22;47726;52.766;6.606;2022-10-20T13:56:32;13.10;99.90
61807;DHT22;47726;52.766;6.606;2022-10-20T13:59:26;13.10;99.90
61807;DHT22;47726;52.766;6.606;2022-10-20T14:01:57;13.10;99.90
61807;DHT22;47726;52.766;6.606;2022-10-20T14:04:34;13.10;99.90
61807;DHT22;47726;52.766;6.606;2022-10-20T14:07:11;13.10;99.90
61807;DHT22;47726;52.766;6.606;2022-10-20T14:09:38;13.10;99.90
61807;DHT22;47726;52.766;6.606;2022-10-20T14:12:19;13.10;99.90
61807;DHT22;47726;52.766;6.606;2022-10-20T14:14:46;13.00;99.90
61807;DHT22;47726;52.766;6.606;2022-10-20T14:17:18;13.10;99.90
61807;DHT22;47726;52.766;6.606;2022-10-20T14:19:44;13.10;99.90
61807;DHT22;47726;52.766;6.606;2022-10-20T14:22:19;13.00;99.90
61807;DHT22;47726;52.766;6.606;2022-10-20T14:24:49;13.10;99.90
61807;DHT22;47726;52.766;6.606;2022-10-20T14:27:28;13.10;99.90
61807;DHT22;47726;52.766;6.606;2022-10-20T14:29:55;13.10;99.90
61807;DHT22;47726;52.766;6.606;2022-10-20T14:32:23;13.10;99.90
61807;DHT22;47726;52.766;6.606;2022-10-20T14:35:17;13.10;99.90
61807;DHT22;47726;52.766;6.606;2022-10-20T14:38:02;13.10;99.90
61807;DHT22;47726;52.766;6.606;2022-10-20T14:40:33;13.10;99.90
61807;DHT22;47726;52.766;6.606;2022-10-20T14:43:21;13.10;99.90
61807;DHT22;47726;52.766;6.606;2022-10-20T14:45:57;13.10;99.90
61807;DHT22;47726;52.766;6.606;2022-10-20T14:48:46;13.20;99.90
61807;DHT22;47726;52.766;6.606;2022-10-20T14:56:49;13.20;99.90
61807;DHT22;47726;52.766;6.606;2022-10-20T14:59:20;13.20;99.90
61807;DHT22;47726;52.766;6.606;2022-10-20T15:04:27;13.20;99.90
61807;DHT22;47726;52.766;6.606;2022-10-20T15:10:06;13.20;99.90
61807;DHT22;47726;52.766;6.606;2022-10-20T15:15:20;13.20;99.90
61807;DHT22;47726;52.766;6.606;2022-10-20T15:17:46;13.20;99.90
61807;DHT22;47726;52.766;6.606;2022-10-20T15:28:39;13.30;99.90
61807;DHT22;47726;52.766;6.606;2022-10-20T15:31:18;13.30;99.90
61807;DHT22;47726;52.766;6.606;2022-10-20T15:33:44;13.20;99.90
61807;DHT22;47726;52.766;6.606;2022-10-20T15:36:15;13.30;99.90
61807;DHT22;47726;52.766;6.606;2022-10-20T15:38:44;13.30;99.90
61807;DHT22;47726;52.766;6.606;2022-10-20T15:41:16;13.30;99.90
61807;DHT22;47726;52.766;6.606;2022-10-20T15:43:42;13.30;99.90
61807;DHT22;47726;52.766;6.606;2022-10-20T15:46:10;13.30;99.90
61807;DHT22;47726;52.766;6.606;2022-10-20T15:48:36;13.40;99.90
61807;DHT22;47726;52.766;6.606;2022-10-20T15:51:02;13.40;99.90
61807;DHT22;47726;52.766;6.606;2022-10-20T15:53:28;13.40;99.90
61807;DHT22;47726;52.766;6.606;2022-10-20T15:55:54;13.40;99.90
61807;DHT22;47726;52.766;6.606;2022-10-20T15:58:19;13.40;99.90
61807;DHT22;47726;52.766;6.606;2022-10-20T16:00:45;13.40;99.90
61807;DHT22;47726;52.766;6.606;2022-10-20T16:03:17;13.40;99.90
61807;DHT22;47726;52.766;6.606;2022-10-20T16:05:43;13.40;99.90
61807;DHT22;47726;52.766;6.606;2022-10-20T16:08:09;13.40;99.90
61807;DHT22;47726;52.766;6.606;2022-10-20T16:10:36;13.40;99.90
61807;DHT22;47726;52.766;6.606;2022-10-20T16:13:03;13.40;99.90
61807;DHT22;47726;52.766;6.606;2022-10-20T16:15:29;13.40;99.90
61807;DHT22;47726;52.766;6.606;2022-10-20T16:17:55;13.40;99.90
61807;DHT22;47726;52.766;6.606;2022-10-20T16:20:20;13.40;99.90
61807;DHT22;47726;52.766;6.606;2022-10-20T16:22:46;13.40;99.90
61807;DHT22;47726;52.766;6.606;2022-10-20T16:25:11;13.40;99.90
61807;DHT22;47726;52.766;6.606;2022-10-20T16:27:37;13.40;99.90
61807;DHT22;47726;52.766;6.606;2022-10-20T16:30:04;13.40;99.90
61807;DHT22;47726;52.766;6.606;2022-10-20T16:32:30;13.40;99.90
61807;DHT22;47726;52.766;6.606;2022-10-20T16:34:55;13.40;99.90
61807;DHT22;47726;52.766;6.606;2022-10-20T16:37:24;13.40;99.90
61807;DHT22;47726;52.766;6.606;2022-10-20T16:39:51;13.40;99.90
61807;DHT22;47726;52.766;6.606;2022-10-20T16:42:17;13.50;99.90
61807;DHT22;47726;52.766;6.606;2022-10-20T16:44:43;13.40;99.90
61807;DHT22;47726;52.766;6.606;2022-10-20T16:47:09;13.40;99.90
61807;DHT22;47726;52.766;6.606;2022-10-20T16:49:36;13.40;99.90
61807;DHT22;47726;52.766;6.606;2022-10-20T16:52:01;13.40;99.90
61807;DHT22;47726;52.766;6.606;2022-10-20T16:54:27;13.40;99.90
61807;DHT22;47726;52.766;6.606;2022-10-20T16:56:53;13.40;99.90
61807;DHT22;47726;52.766;6.606;2022-10-20T16:59:18;13.40;99.90
61807;DHT22;47726;52.766;6.606;2022-10-20T17:01:44;13.40;99.90
61807;DHT22;47726;52.766;6.606;2022-10-20T17:04:10;13.40;99.90
61807;DHT22;47726;52.766;6.606;2022-10-20T17:06:37;13.40;99.90
61807;DHT22;47726;52.766;6.606;2022-10-20T17:09:03;13.40;99.90
61807;DHT22;47726;52.766;6.606;2022-10-20T17:11:30;13.40;99.90
61807;DHT22;47726;52.766;6.606;2022-10-20T17:13:57;13.30;99.90
61807;DHT22;47726;52.766;6.606;2022-10-20T17:16:26;13.30;99.90
61807;DHT22;47726;52.766;6.606;2022-10-20T17:18:52;13.30;99.90
61807;DHT22;47726;52.766;6.606;2022-10-20T17:21:18;13.30;99.90
61807;DHT22;47726;52.766;6.606;2022-10-20T17:23:44;13.30;99.90
61807;DHT22;47726;52.766;6.606;2022-10-20T17:26:22;13.30;99.90
61807;DHT22;47726;52.766;6.606;2022-10-20T17:28:48;13.20;99.90
61807;DHT22;47726;52.766;6.606;2022-10-20T17:31:15;13.20;99.90
61807;DHT22;47726;52.766;6.606;2022-10-20T17:33:41;13.20;99.90
61807;DHT22;47726;52.766;6.606;2022-10-20T17:36:07;13.20;99.90
61807;DHT22;47726;52.766;6.606;2022-10-20T17:38:34;13.20;99.90
61807;DHT22;47726;52.766;6.606;2022-10-20T17:41:09;13.20;99.90
61807;DHT22;47726;52.766;6.606;2022-10-20T17:43:35;13.20;99.90
61807;DHT22;47726;52.766;6.606;2022-10-20T17:46:10;13.10;99.90
61807;DHT22;47726;52.766;6.606;2022-10-20T17:48:36;13.10;99.90
61807;DHT22;47726;52.766;6.606;2022-10-20T17:51:06;13.10;99.90
61807;DHT22;47726;52.766;6.606;2022-10-20T17:53:33;13.10;99.90
61807;DHT22;47726;52.766;6.606;2022-10-20T17:56:08;13.00;99.90
61807;DHT22;47726;52.766;6.606;2022-10-20T17:58:34;13.00;99.90
61807;DHT22;47726;52.766;6.606;2022-10-20T18:01:28;13.00;99.90
61807;DHT22;47726;52.766;6.606;2022-10-20T18:03:57;13.00;99.90